Terminal Aerodrome Forecast
Issued by NWS Cleveland, OH

Home | Current Version | Previous Version | Graphics & Text | Print | Product List | Glossary On
Versions: 1 2 3 4 5 6 7 8 9 10 11 12 13 14
221
FTUS41 KCLE 140528
TAFERI
TAF
KERI 140528Z 1406/1506 16005KT P6SM FEW250
     FM141400 10004KT P6SM SCT250
     FM150000 36006KT P6SM SCT250=

USA.gov is the U.S. government's official web portal to all federal, state and local government web resources and services.